Map

Track Data

SID SEASON NUMBER BASIN SUBBASIN NAME ISO_TIME NATURE LAT LON WMO_WIND WMO_PRES WMO_AGENCY TRACK_TYPE DIST2LAND LANDFALL IFLAG USA_AGENCY USA_ATCF_ID USA_LAT USA_LON USA_RECORD USA_STATUS USA_WIND USA_PRES USA_SSHS USA_R34_NE USA_R34_SE USA_R34_SW USA_R34_NW USA_R50_NE USA_R50_SE USA_R50_SW USA_R50_NW USA_R64_NE USA_R64_SE USA_R64_SW USA_R64_NW USA_POCI USA_ROCI USA_RMW USA_EYE TOKYO_LAT TOKYO_LON TOKYO_GRADE TOKYO_WIND TOKYO_PRES TOKYO_R50_DIR TOKYO_R50_LONG TOKYO_R50_SHORT TOKYO_R30_DIR TOKYO_R30_LONG TOKYO_R30_SHORT TOKYO_LAND CMA_LAT CMA_LON CMA_CAT CMA_WIND CMA_PRES HKO_LAT HKO_LON HKO_CAT HKO_WIND HKO_PRES NEWDELHI_LAT NEWDELHI_LON NEWDELHI_GRADE NEWDELHI_WIND NEWDELHI_PRES NEWDELHI_CI NEWDELHI_DP NEWDELHI_POCI REUNION_LAT REUNION_LON REUNION_TYPE REUNION_WIND REUNION_PRES REUNION_TNUM REUNION_CI REUNION_RMW REUNION_R34_NE REUNION_R34_SE REUNION_R34_SW REUNION_R34_NW REUNION_R50_NE REUNION_R50_SE REUNION_R50_SW REUNION_R50_NW REUNION_R64_NE REUNION_R64_SE REUNION_R64_SW REUNION_R64_NW BOM_LAT BOM_LON BOM_TYPE BOM_WIND BOM_PRES BOM_TNUM BOM_CI BOM_RMW BOM_R34_NE BOM_R34_SE BOM_R34_SW BOM_R34_NW BOM_R50_NE BOM_R50_SE BOM_R50_SW BOM_R50_NW BOM_R64_NE BOM_R64_SE BOM_R64_SW BOM_R64_NW BOM_ROCI BOM_POCI BOM_EYE BOM_POS_METHOD BOM_PRES_METHOD NADI_LAT NADI_LON NADI_CAT NADI_WIND NADI_PRES WELLINGTON_LAT WELLINGTON_LON WELLINGTON_WIND WELLINGTON_PRES DS824_LAT DS824_LON DS824_STAGE DS824_WIND DS824_PRES TD9636_LAT TD9636_LON TD9636_STAGE TD9636_WIND TD9636_PRES TD9635_LAT TD9635_LON TD9635_WIND TD9635_PRES TD9635_ROCI NEUMANN_LAT NEUMANN_LON NEUMANN_CLASS NEUMANN_WIND NEUMANN_PRES MLC_LAT MLC_LON MLC_CLASS MLC_WIND MLC_PRES USA_GUST BOM_GUST BOM_GUST_PER REUNION_GUST REUNION_GUST_PER USA_SEAHGT USA_SEARAD_NE USA_SEARAD_SE USA_SEARAD_SW USA_SEARAD_NW STORM_SPEED STORM_DIR
1903294N21288 1903 56 NA NA NOT_NAMED 1903-10-21 06:00:00 TS 21.2000 -72.0000 30 hurdat_atl main 103 83 O_____________ hurdat_atl AL091903 21.2000 -72.0000 TD 30 -1 6 301
1903294N21288 1903 56 NA NA NOT_NAMED 1903-10-21 09:00:00 TS 21.3451 -72.2599 main 73 61 P_____________ AL091903 21.3451 -72.2599 TD 30 -1 6 303
1903294N21288 1903 56 NA NA NOT_NAMED 1903-10-21 12:00:00 TS 21.5000 -72.5000 30 hurdat_atl main 61 53 O_____________ hurdat_atl AL091903 21.5000 -72.5000 TD 30 -1 5 309
1903294N21288 1903 56 NA NA NOT_NAMED 1903-10-21 15:00:00 TS 21.6774 -72.7076 main 63 59 P_____________ AL091903 21.6774 -72.7076 TD 30 -1 5 317
1903294N21288 1903 56 NA NA NOT_NAMED 1903-10-21 18:00:00 TS 21.9000 -72.9000 30 hurdat_atl main 78 78 O_____________ hurdat_atl AL091903 21.9000 -72.9000 TD 30 -1 6 323
1903294N21288 1903 56 NA NA NOT_NAMED 1903-10-21 21:00:00 TS 22.1775 -73.1075 main 111 111 P_____________ AL091903 22.1775 -73.1075 TD 30 -1 7 328
1903294N21288 1903 56 NA NA NOT_NAMED 1903-10-22 00:00:00 TS 22.5000 -73.3000 30 hurdat_atl main 145 145 O_____________ hurdat_atl AL091903 22.5000 -73.3000 TD 30 -1 7 334
1903294N21288 1903 56 NA NA NOT_NAMED 1903-10-22 03:00:00 TS 22.8349 -73.4502 main 181 181 P_____________ AL091903 22.8349 -73.4502 TD 30 -1 8 338
1903294N21288 1903 56 NA NA NOT_NAMED 1903-10-22 06:00:00 TS 23.2000 -73.6000 30 hurdat_atl main 227 227 O_____________ hurdat_atl AL091903 23.2000 -73.6000 TD 30 -1 8 336
1903294N21288 1903 56 NA NA NOT_NAMED 1903-10-22 09:00:00 TS 23.5926 -73.8074 main 275 275 P_____________ AL091903 23.5926 -73.8074 TD 30 -1 9 335
1903294N21288 1903 56 NA NA NOT_NAMED 1903-10-22 12:00:00 TS 24.0000 -74.0000 30 hurdat_atl main 323 323 O_____________ hurdat_atl AL091903 24.0000 -74.0000 TD 30 -1 9 340
1903294N21288 1903 56 NA NA NOT_NAMED 1903-10-22 15:00:00 TS 24.4000 -74.1226 main 364 353 P_____________ AL091903 24.4000 -74.1226 TD 30 -1 8 347
1903294N21288 1903 56 NA NA NOT_NAMED 1903-10-22 18:00:00 TS 24.8000 -74.2000 30 hurdat_atl main 355 349 O_____________ hurdat_atl AL091903 24.8000 -74.2000 TD 30 -1 8 351
1903294N21288 1903 56 NA NA NOT_NAMED 1903-10-22 21:00:00 TS 25.2075 -74.2650 main 351 351 P_____________ AL091903 25.2075 -74.2650 TD 30 -1 8 354
1903294N21288 1903 56 NA NA NOT_NAMED 1903-10-23 00:00:00 TS 25.6000 -74.3000 30 hurdat_atl main 363 363 O_____________ hurdat_atl AL091903 25.6000 -74.3000 TD 30 -1 8 358
1903294N21288 1903 56 NA NA NOT_NAMED 1903-10-23 03:00:00 TS 25.9575 -74.3076 main 380 380 P_____________ AL091903 25.9575 -74.3076 TD 30 -1 7 0
1903294N21288 1903 56 NA NA NOT_NAMED 1903-10-23 06:00:00 TS 26.3000 -74.3000 30 hurdat_atl main 393 393 O_____________ hurdat_atl AL091903 26.3000 -74.3000 TD 30 -1 7 0
1903294N21288 1903 56 NA NA NOT_NAMED 1903-10-23 09:00:00 TS 26.6350 -74.2852 main 406 406 P_____________ AL091903 26.6350 -74.2852 TD 32 -1 7 0
1903294N21288 1903 56 NA NA NOT_NAMED 1903-10-23 12:00:00 TS 27.0000 -74.3000 35 hurdat_atl main 425 425 O_____________ hurdat_atl AL091903 27.0000 -74.3000 TS 35 0 8 354
1903294N21288 1903 56 NA NA NOT_NAMED 1903-10-23 15:00:00 TS 27.4200 -74.3775 main 441 441 P_____________ AL091903 27.4200 -74.3775 TS 37 0 9 349
1903294N21288 1903 56 NA NA NOT_NAMED 1903-10-23 18:00:00 TS 27.9000 -74.5000 40 hurdat_atl main 467 467 O_____________ hurdat_atl AL091903 27.9000 -74.5000 TS 40 0 10 347
1903294N21288 1903 56 NA NA NOT_NAMED 1903-10-23 21:00:00 TS 28.4350 -74.6425 main 499 499 P_____________ AL091903 28.4350 -74.6425 TS 42 0 11 347
1903294N21288 1903 56 NA NA NOT_NAMED 1903-10-24 00:00:00 TS 29.0000 -74.8000 45 hurdat_atl main 538 538 O_____________ hurdat_atl AL091903 29.0000 -74.8000 TS 45 0 12 345
1903294N21288 1903 56 NA NA NOT_NAMED 1903-10-24 03:00:00 TS 29.5500 -74.9797 main 547 504 P_____________ AL091903 29.5500 -74.9797 TS 47 0 11 347
1903294N21288 1903 56 NA NA NOT_NAMED 1903-10-24 06:00:00 TS 30.1000 -75.1000 50 hurdat_atl main 504 457 O_____________ hurdat_atl AL091903 30.1000 -75.1000 TS 50 0 11 354
1903294N21288 1903 56 NA NA NOT_NAMED 1903-10-24 09:00:00 TS 30.6424 -75.1099 main 457 411 P_____________ AL091903 30.6424 -75.1099 TS 50 0 11 5
1903294N21288 1903 56 NA NA NOT_NAMED 1903-10-24 12:00:00 TS 31.2000 -75.0000 50 hurdat_atl main 411 355 O_____________ hurdat_atl AL091903 31.2000 -75.0000 TS 50 0 12 11
1903294N21288 1903 56 NA NA NOT_NAMED 1903-10-24 15:00:00 TS 31.7919 -74.8464 main 359 316 P_____________ AL091903 31.7919 -74.8464 TS 50 0 13 19
1903294N21288 1903 56 NA NA NOT_NAMED 1903-10-24 18:00:00 ET 32.4000 -74.5000 50 hurdat_atl main 316 298 O_____________ hurdat_atl AL091903 32.4000 -74.5000 EX 50 -4 15 33
1903294N21288 1903 56 NA NA NOT_NAMED 1903-10-24 21:00:00 ET 33.0227 -73.8832 main 305 305 P_____________ AL091903 33.0227 -73.8832 EX 50 -4 17 44
1903294N21288 1903 56 NA NA NOT_NAMED 1903-10-25 00:00:00 ET 33.6000 -73.1000 50 hurdat_atl main 325 324 O_____________ hurdat_atl AL091903 33.6000 -73.1000 EX 50 -4 16 52
1903294N21288 1903 56 NA NA NOT_NAMED 1903-10-25 03:00:00 ET 34.0416 -72.3423 main 353 347 P_____________ AL091903 34.0416 -72.3423 EX 50 -4 16 56
1903294N21288 1903 56 NA NA NOT_NAMED 1903-10-25 06:00:00 ET 34.5000 -71.5000 50 hurdat_atl main 390 390 O_____________ hurdat_atl AL091903 34.5000 -71.5000 EX 50 -4 18 55
1903294N21288 1903 56 NA NA NOT_NAMED 1903-10-25 09:00:00 ET 35.0513 -70.5706 main 449 449 P_____________ AL091903 35.0513 -70.5706 EX 50 -4 21 52
1903294N21288 1903 56 NA NA NOT_NAMED 1903-10-25 12:00:00 ET 35.8000 -69.5000 50 hurdat_atl main 539 539 O_____________ hurdat_atl AL091903 35.8000 -69.5000 EX 50 -4 26 47
1903294N21288 1903 56 NA NA NOT_NAMED 1903-10-25 15:00:00 ET 36.8087 -68.2871 main 562 489 P_____________ AL091903 36.8087 -68.2871 EX 50 -4 30 43
1903294N21288 1903 56 NA NA NOT_NAMED 1903-10-25 18:00:00 ET 38.0000 -66.9000 50 hurdat_atl main 488 467 O_____________ hurdat_atl AL091903 38.0000 -66.9000 EX 50 -4 34 44
1903294N21288 1903 56 NA NA NOT_NAMED 1903-10-25 21:00:00 ET 39.2419 -65.3510 main 477 363 P_____________ AL091903 39.2419 -65.3510 EX 50 -4 35 45
1903294N21288 1903 56 NA NA NOT_NAMED 1903-10-26 00:00:00 ET 40.5000 -63.7000 50 hurdat_atl main 358 326 O_____________ hurdat_atl AL091903 40.5000 -63.7000 EX 50 -4 35 46
1903294N21288 1903 56 NA NA NOT_NAMED 1903-10-26 03:00:00 ET 41.6716 -62.0233 main 326 275 P_____________ AL091903 41.6716 -62.0233 EX 50 -4 34 47
1903294N21288 1903 56 NA NA NOT_NAMED 1903-10-26 06:00:00 ET 42.8000 -60.4000 50 hurdat_atl main 272 224 O_____________ hurdat_atl AL091903 42.8000 -60.4000 EX 50 -4 32 46
1903294N21288 1903 56 NA NA NOT_NAMED 1903-10-26 09:00:00 ET 43.8988 -58.8557 main 222 210 P_____________ AL091903 43.8988 -58.8557 EX 47 -4 30 44
1903294N21288 1903 56 NA NA NOT_NAMED 1903-10-26 12:00:00 ET 45.0000 -57.5000 45 hurdat_atl main 220 94 O_____________ hurdat_atl AL091903 45.0000 -57.5000 EX 45 -4 29 38
1903294N21288 1903 56 NA NA NOT_NAMED 1903-10-26 15:00:00 ET 46.1777 -56.3565 main 85 0 P_____________ AL091903 46.1777 -56.3565 EX 42 -4 27 32
1903294N21288 1903 56 NA NA NOT_NAMED 1903-10-26 18:00:00 ET 47.3000 -55.4000 40 hurdat_atl main 7 0 O_____________ hurdat_atl AL091903 47.3000 -55.4000 EX 40 -4 24 32
1903294N21288 1903 56 NA NA NOT_NAMED 1903-10-26 21:00:00 ET 48.2216 -54.4844 main 0 0 P_____________ AL091903 48.2216 -54.4844 EX 40 -4 21 32
1903294N21288 1903 56 NA NA NOT_NAMED 1903-10-27 00:00:00 ET 49.1000 -53.7000 40 hurdat_atl main 0 0 O_____________ hurdat_atl AL091903 49.1000 -53.7000 EX 40 -4 21 27
1903294N21288 1903 56 NA NA NOT_NAMED 1903-10-27 03:00:00 ET 50.0914 -53.0236 main 95 95 P_____________ AL091903 50.0914 -53.0236 EX 40 -4 22 23
1903294N21288 1903 56 NA NA NOT_NAMED 1903-10-27 06:00:00 ET 51.1000 -52.4000 40 hurdat_atl main 213 213 O_____________ hurdat_atl AL091903 51.1000 -52.4000 EX 40 -4 21 23
1903294N21288 1903 56 NA NA NOT_NAMED 1903-10-27 09:00:00 ET 52.0346 -51.7105 main 266 266 P_____________ AL091903 52.0346 -51.7105 EX 37 -4 21 24
1903294N21288 1903 56 NA NA NOT_NAMED 1903-10-27 12:00:00 ET 53.0000 -51.0000 35 hurdat_atl main 315 315 O_____________ hurdat_atl AL091903 53.0000 -51.0000 EX 35 -4 22 23
1903294N21288 1903 56 NA NA NOT_NAMED 1903-10-27 15:00:00 ET 54.0684 -50.2670 main 370 370 P_____________ AL091903 54.0684 -50.2670 EX 35 -4 24 22
1903294N21288 1903 56 NA NA NOT_NAMED 1903-10-27 18:00:00 ET 55.2000 -49.5000 35 hurdat_atl main 454 O_____________ hurdat_atl AL091903 55.2000 -49.5000 EX 35 -4 24 21

About IBTrACS Database

This database is a web-friendly format of International Best Track Archive for Climate Stewardship (IBTrACS), a global best track data archive curated by NOAA dating back to 1842.

Updated: 2021-10-25